Time;durP1;ratioP1;P1;durP2;ratioP2;P2;SDS_P1;SDS_P2;PMS_P1;PMS_P2;Temp;Humidity;BMP_temperature;BMP_pressure;BME280_temperature;BME280_humidity;BME280_pressure;Samples;Min_cycle;Max_cycle;Signal;HPM_P1;HPM_P2
2023/09/09 05:11:49;;;;;;;7.93;2.65;;;;;;;12.64;64.94;100141.38;5144686;23;20516;-90
2023/09/09 05:14:41;;;;;;;15.77;2.80;;;;;;;12.80;64.84;100159.16;4894021;29;20133;-90
2023/09/09 05:17:08;;;;;;;8.13;2.63;;;;;;;12.69;64.66;100133.06;4907868;23;20056;-91
2023/09/09 05:20:55;;;;;;;4.55;1.70;;;;;;;12.85;62.85;100167.28;4882516;29;20571;-92
2023/09/09 05:23:47;;;;;;;9.18;2.13;;;;;;;12.94;62.55;100161.88;4872041;29;20059;-92
2023/09/09 05:26:13;;;;;;;9.38;2.10;;;;;;;12.95;62.53;100152.53;4859396;29;20068;-88
2023/09/09 05:29:45;;;;;;;6.22;2.10;;;;;;;13.14;62.30;100171.59;4898255;29;20044;-91
2023/09/09 05:32:32;;;;;;;10.63;2.45;;;;;;;13.14;62.32;100177.06;4889405;29;20036;-93
2023/09/09 05:34:59;;;;;;;5.30;2.78;;;;;;;13.12;62.36;100168.34;4915015;29;20045;-89
2023/09/09 05:40:36;;;;;;;6.60;2.22;;;;;;;13.09;61.32;100166.22;4916567;29;19938;-91
2023/09/09 05:43:25;;;;;;;5.00;2.30;;;;;;;12.86;61.57;100130.47;4919826;29;20036;-90
2023/09/09 05:46:17;;;;;;;7.18;2.15;;;;;;;13.27;59.55;100189.16;4880644;29;20043;-91
2023/09/09 05:48:43;;;;;;;5.80;1.98;;;;;;;13.19;58.82;100174.22;4862059;29;20044;-91
2023/09/09 05:51:27;;;;;;;5.57;1.67;;;;;;;12.94;58.63;100128.94;4899064;29;20044;-92
2023/09/09 05:53:53;;;;;;;9.23;2.05;;;;;;;13.48;59.54;100193.09;4879263;29;20435;-88
2023/09/09 05:56:19;;;;;;;6.72;1.90;;;;;;;13.33;58.48;100172.28;4893781;29;20083;-91
2023/09/09 05:58:59;;;;;;;13.68;2.50;;;;;;;13.09;58.21;100125.84;4897827;29;20471;-94
2023/09/09 06:01:36;;;;;;;4.65;1.80;;;;;;;13.39;57.56;100184.75;4917162;29;20040;-93
2023/09/09 06:04:15;;;;;;;10.70;2.33;;;;;;;13.50;58.04;100196.31;4904704;29;20060;-93
2023/09/09 06:07:49;;;;;;;5.10;1.67;;;;;;;13.54;57.24;100207.50;4903886;29;20052;-92
2023/09/09 06:10:19;;;;;;;8.82;2.20;;;;;;;13.39;57.35;100173.78;4882252;29;20036;-92
2023/09/09 06:13:05;;;;;;;9.30;2.00;;;;;;;13.48;58.17;100200.53;4897417;29;20075;-96
2023/09/09 06:15:42;;;;;;;12.85;2.00;;;;;;;13.43;57.89;100192.38;4900083;29;20426;-91
2023/09/09 06:18:18;;;;;;;12.77;2.20;;;;;;;13.32;58.34;100211.84;4865435;29;20044;-94
2023/09/09 06:23:40;;;;;;;17.92;2.30;;;;;;;13.56;56.85;100194.28;4892031;29;20054;-89
2023/09/09 06:26:20;;;;;;;11.95;2.05;;;;;;;13.43;55.54;100170.41;4936548;29;20067;-91
2023/09/09 06:29:00;;;;;;;6.90;1.63;;;;;;;13.43;53.21;100152.00;4910510;29;20036;-91
2023/09/09 06:31:47;;;;;;;4.97;1.48;;;;;;;13.90;54.01;100214.88;4879624;29;20098;-89
2023/09/09 06:34:14;;;;;;;7.25;1.95;;;;;;;13.91;53.92;100211.00;4879003;29;20052;-91
2023/09/09 06:36:40;;;;;;;;;;;;;;;13.94;53.16;100213.13;4894945;29;20047;-91
2023/09/09 06:39:07;;;;;;;5.40;2.00;;;;;;;13.63;52.86;100169.91;4889457;29;19922;-94
2023/09/09 06:42:32;;;;;;;2.33;1.38;;;;;;;14.01;53.14;100211.56;4897512;29;20497;-93
2023/09/09 06:46:00;;;;;;;5.20;1.50;;;;;;;14.16;52.07;100206.78;4898402;29;20051;-90
2023/09/09 06:48:26;;;;;;;12.38;2.08;;;;;;;14.10;52.35;100206.09;4882406;29;20046;-91
2023/09/09 06:51:39;;;;;;;9.05;1.70;;;;;;;13.97;51.65;100183.09;4914143;29;20083;-93
2023/09/09 06:54:07;;;;;;;4.93;2.00;;;;;;;13.95;52.02;100187.28;4869712;29;20048;-91
2023/09/09 06:56:40;;;;;;;5.07;1.90;;;;;;;14.12;52.11;100217.63;4880146;29;20056;-93
2023/09/09 06:59:07;;;;;;;16.23;1.63;;;;;;;13.86;52.74;100190.75;4869015;29;20143;-92
2023/09/09 07:01:46;;;;;;;5.40;1.60;;;;;;;13.83;54.35;100169.41;4888535;29;20035;-93
2023/09/09 07:04:12;;;;;;;9.45;1.83;;;;;;;14.07;53.34;100174.56;4917026;29;20058;-93
2023/09/09 07:06:41;;;;;;;3.72;1.80;;;;;;;14.18;51.82;100183.38;4912707;29;20098;-92
2023/09/09 07:09:11;;;;;;;6.60;1.98;;;;;;;14.34;50.61;100228.59;4913321;29;20134;-93
2023/09/09 07:12:09;;;;;;;2.63;1.52;;;;;;;13.98;51.55;100164.66;4885562;29;20048;-91
2023/09/09 07:14:41;;;;;;;6.18;2.00;;;;;;;14.06;51.48;100166.63;4855832;29;20060;-93
2023/09/09 07:17:12;;;;;;;3.88;1.90;;;;;;;14.38;51.69;100189.44;4796773;29;20073;-95
2023/09/09 07:19:38;;;;;;;11.38;2.08;;;;;;;14.63;50.91;100213.50;4823320;29;20059;-94
2023/09/09 07:25:48;;;;;;;16.15;1.98;;;;;;;14.76;49.27;100248.38;4859311;29;20061;-95
2023/09/09 07:41:15;;;;;;;2.95;1.77;;;;;;;14.47;50.33;100198.53;4915804;29;20052;-94
2023/09/09 07:44:35;;;;;;;5.68;1.80;;;;;;;14.93;50.66;100255.91;4901347;29;20139;-95
2023/09/09 07:47:07;;;;;;;11.00;1.88;;;;;;;14.62;50.84;100220.16;4866069;29;20071;-92
2023/09/09 07:49:38;;;;;;;8.02;1.85;;;;;;;14.87;51.03;100264.63;4866520;29;20053;-92
2023/09/09 07:52:30;;;;;;;5.70;2.17;;;;;;;14.96;50.83;100260.75;4882367;29;20048;-92
2023/09/09 07:54:58;;;;;;;28.20;2.97;;;;;;;14.83;51.29;100223.13;5007186;23;20055;-92
2023/09/09 07:58:34;;;;;;;7.18;2.00;;;;;;;15.10;50.64;100259.81;4904782;29;20040;-96
2023/09/09 08:01:30;;;;;;;3.22;1.80;;;;;;;14.62;50.94;100200.91;4921031;29;20064;-92
2023/09/09 08:04:31;;;;;;;17.15;2.65;;;;;;;14.92;50.56;100256.22;4890055;29;20075;-93
2023/09/09 08:07:22;;;;;;;10.85;2.40;;;;;;;14.71;50.68;100239.47;4919135;29;20063;-93
2023/09/09 08:09:59;;;;;;;17.70;2.58;;;;;;;14.72;50.92;100224.56;4919520;29;20040;-93
2023/09/09 08:13:07;;;;;;;;;;;;;;;15.06;50.68;100276.16;5241101;23;20063;-95
2023/09/09 08:16:41;;;;;;;9.38;2.53;;;;;;;15.08;50.62;100246.38;4924021;29;19934;-93
2023/09/09 08:19:17;;;;;;;12.73;2.35;;;;;;;15.16;50.28;100245.56;4858513;29;20066;-92
2023/09/09 08:34:38;;;;;;;5.43;2.58;;;;;;;15.10;51.81;100263.41;5337760;23;20043;-96
2023/09/09 08:41:43;;;;;;;6.55;2.30;;;;;;;14.92;52.75;100250.69;4936311;29;20071;-90
2023/09/09 08:45:06;;;;;;;19.83;2.72;;;;;;;14.55;53.42;100263.84;4898700;29;20048;-89
2023/09/09 08:47:50;;;;;;;11.07;2.90;;;;;;;14.58;53.45;100252.19;4865547;29;20044;-93
2023/09/09 08:50:17;;;;;;;13.75;2.80;;;;;;;14.51;54.08;100274.66;4902229;29;20064;-91
2023/09/09 08:52:53;;;;;;;13.38;2.80;;;;;;;14.29;54.08;100239.72;4884674;29;20048;-94
2023/09/09 08:55:45;;;;;;;10.20;2.75;;;;;;;14.44;54.76;100256.97;4901245;29;20071;-94
2023/09/09 08:58:24;;;;;;;20.88;3.50;;;;;;;14.47;56.39;100218.63;4886764;29;20032;-92
2023/09/09 09:01:00;;;;;;;8.85;2.42;;;;;;;14.73;53.69;100267.47;4884602;29;20044;-93
2023/09/09 09:03:27;;;;;;;4.32;2.42;;;;;;;14.51;53.77;100216.06;4868635;29;20060;-93
2023/09/09 09:06:43;;;;;;;10.50;2.53;;;;;;;14.88;53.26;100267.06;4885048;29;20048;-93
2023/09/09 09:09:47;;;;;;;;;;;;;;;15.04;54.44;100262.72;4916596;29;20052;-92
2023/09/09 09:13:05;;;;;;;12.27;2.92;;;;;;;15.03;53.97;100255.63;4898710;29;19920;-91
2023/09/09 09:15:50;;;;;;;9.20;3.03;;;;;;;15.30;54.32;100255.66;4871123;29;20078;-91
2023/09/09 09:19:07;;;;;;;15.63;3.27;;;;;;;15.36;52.34;100262.63;4885097;29;20053;-96
2023/09/09 10:12:24;;;;;;;10.30;2.75;;;;;;;15.47;54.85;100258.44;4919040;29;20068;-90
2023/09/09 10:14:56;;;;;;;12.75;2.90;;;;;;;14.95;54.98;100192.25;4824895;29;20551;-91
2023/09/09 10:17:27;;;;;;;6.97;2.90;;;;;;;15.14;55.53;100247.03;4856860;23;20054;-90
2023/09/09 10:19:59;;;;;;;13.20;2.70;;;;;;;15.06;56.42;100251.38;4905433;29;20053;-90
2023/09/09 10:22:30;;;;;;;10.15;2.65;;;;;;;14.78;56.34;100239.81;4927293;29;20051;-89
2023/09/09 10:24:58;;;;;;;7.45;2.50;;;;;;;14.88;56.69;100244.22;4910833;29;20052;-90
2023/09/09 10:27:26;;;;;;;13.15;2.80;;;;;;;14.75;56.46;100221.19;4914568;29;20130;-90
2023/09/09 10:30:10;;;;;;;11.65;3.20;;;;;;;15.01;56.72;100240.53;4896077;29;20048;-91
2023/09/09 10:32:43;;;;;;;18.45;4.57;;;;;;;15.13;56.97;100239.91;4893932;29;20037;-90
2023/09/09 10:38:04;;;;;;;22.67;4.80;;;;;;;15.63;56.36;100248.56;4838634;29;20054;-92
2023/09/09 10:40:32;;;;;;;14.60;5.03;;;;;;;15.52;55.60;100244.50;4828908;29;20058;-93
2023/09/09 10:43:07;;;;;;;13.73;4.88;;;;;;;15.36;56.23;100205.56;4826730;29;20055;-92
2023/09/09 10:45:53;;;;;;;7.32;4.00;;;;;;;15.40;56.24;100187.28;4824713;29;20467;-92
2023/09/09 10:48:31;;;;;;;8.18;3.58;;;;;;;15.32;55.92;100218.38;4817898;29;20059;-91
2023/09/09 10:52:00;;;;;;;10.00;3.10;;;;;;;15.19;57.31;100250.44;4804485;29;20042;-90
2023/09/09 10:54:27;;;;;;;18.83;3.83;;;;;;;14.99;57.95;100212.50;4856438;23;20060;-89
2023/09/09 10:57:02;;;;;;;15.18;4.32;;;;;;;15.02;57.79;100218.16;4914699;23;20056;-93
2023/09/09 11:00:39;;;;;;;32.00;7.40;;;;;;;14.94;57.87;100207.16;5048740;23;20086;-91
2023/09/09 11:03:40;;;;;;;26.70;6.20;;;;;;;15.37;58.11;100262.31;4872652;29;20041;-89
2023/09/09 11:06:10;;;;;;;18.40;5.68;;;;;;;15.32;58.43;100258.91;4864634;29;20131;-90
2023/09/09 11:09:00;;;;;;;14.32;4.82;;;;;;;15.40;58.41;100266.38;4872069;29;20065;-92
2023/09/09 11:11:45;;;;;;;17.38;6.03;;;;;;;15.33;58.58;100230.22;4868633;29;20041;-89
2023/09/09 11:14:32;;;;;;;15.80;4.82;;;;;;;15.39;58.47;100243.50;4883348;29;20052;-90
2023/09/09 11:17:13;;;;;;;11.27;4.60;;;;;;;15.31;59.10;100235.25;4855207;29;20054;-90
2023/09/09 11:19:55;;;;;;;19.48;4.57;;;;;;;15.31;59.32;100243.50;4836510;29;20046;-88
2023/09/09 11:26:00;;;;;;;17.35;8.00;;;;;;;15.56;59.63;100250.97;4830231;29;20130;-88
2023/09/09 11:31:40;;;;;;;17.83;3.97;;;;;;;15.46;59.98;100259.56;4826874;29;20102;-89
2023/09/09 11:34:06;;;;;;;16.23;4.10;;;;;;;15.35;59.89;100248.03;4831598;29;20158;-87
2023/09/09 11:36:40;;;;;;;17.33;5.25;;;;;;;14.97;60.99;100214.78;4813708;29;20658;-90
2023/09/09 11:39:27;;;;;;;13.50;4.47;;;;;;;15.36;60.69;100255.16;4828259;29;20050;-89
2023/09/09 11:42:03;;;;;;;16.85;4.68;;;;;;;15.28;61.00;100254.03;4849493;29;20050;-89
2023/09/09 11:44:54;;;;;;;15.25;4.70;;;;;;;15.22;61.34;100260.81;4846375;29;20100;-90
2023/09/09 11:47:21;;;;;;;15.15;3.97;;;;;;;14.95;61.65;100211.53;4816017;29;20054;-89
2023/09/09 11:50:06;;;;;;;18.63;5.03;;;;;;;15.29;61.35;100243.81;4848168;29;20140;-91
2023/09/09 11:52:41;;;;;;;15.60;4.57;;;;;;;15.37;60.97;100222.94;4831816;29;20056;-91
2023/09/09 11:55:07;;;;;;;19.58;5.00;;;;;;;15.28;61.03;100211.91;4883923;29;20049;-90
2023/09/09 11:57:58;;;;;;;12.85;4.72;;;;;;;15.64;60.72;100244.66;4867645;29;20044;-90
2023/09/09 12:00:38;;;;;;;15.73;5.43;;;;;;;15.50;60.47;100205.44;4860660;29;20053;-90
2023/09/09 12:03:05;;;;;;;23.30;7.78;;;;;;;15.64;60.25;100222.63;4852725;29;20057;-90
2023/09/09 12:05:50;;;;;;;23.63;7.68;;;;;;;15.79;60.57;100248.09;4856880;29;20046;-91
2023/09/09 12:08:22;;;;;;;7.60;4.70;;;;;;;15.42;60.69;100206.22;4857120;29;20053;-90
2023/09/09 12:11:14;;;;;;;20.23;4.38;;;;;;;15.68;60.74;100234.63;4863780;29;20036;-90
2023/09/09 12:13:41;;;;;;;13.02;5.22;;;;;;;15.77;60.62;100233.84;4864306;29;20047;-89
2023/09/09 12:16:09;;;;;;;12.18;5.10;;;;;;;15.84;60.48;100229.44;4852059;29;20622;-90
2023/09/09 12:18:38;;;;;;;10.07;4.75;;;;;;;15.78;60.46;100211.44;4834955;29;20046;-90
2023/09/09 12:21:26;;;;;;;12.98;5.13;;;;;;;15.98;60.22;100238.34;4850112;29;20041;-88
2023/09/09 12:27:51;;;;;;;12.45;5.10;;;;;;;16.11;60.21;100233.78;4871502;29;20053;-88
2023/09/09 12:30:51;;;;;;;11.55;5.47;;;;;;;16.01;59.80;100197.47;4842785;29;20051;-91
2023/09/09 12:33:19;;;;;;;23.25;4.55;;;;;;;16.13;60.62;100230.72;4831380;29;20150;-92
2023/09/09 12:35:59;;;;;;;14.57;5.30;;;;;;;16.31;59.98;100231.47;4811147;29;20070;-91
2023/09/09 12:38:40;;;;;;;14.93;5.13;;;;;;;16.06;60.19;100222.94;4828869;29;20559;-92
2023/09/09 12:41:11;;;;;;;16.10;5.15;;;;;;;16.02;60.26;100219.19;4796886;29;20058;-89
2023/09/09 12:43:43;;;;;;;18.25;4.82;;;;;;;15.89;60.51;100198.13;4811027;29;20043;-91
2023/09/09 12:49:34;;;;;;;13.32;5.45;;;;;;;15.96;60.91;100209.50;4828013;29;20050;-91
2023/09/09 12:52:00;;;;;;;26.30;5.13;;;;;;;16.10;61.16;100237.69;4811382;29;20054;-90
2023/09/09 12:54:30;;;;;;;15.68;5.20;;;;;;;16.12;61.07;100235.41;4843441;24;20056;-90
2023/09/09 12:56:56;;;;;;;15.53;8.60;;;;;;;15.92;61.63;100203.00;4906781;29;20039;-91
2023/09/09 12:59:22;;;;;;;10.45;5.03;;;;;;;16.06;61.43;100222.09;4907568;29;20513;-89
2023/09/09 13:01:49;;;;;;;14.32;4.43;;;;;;;16.19;61.42;100210.91;4909461;29;20052;-91
2023/09/09 13:04:16;;;;;;;14.18;5.03;;;;;;;16.23;61.41;100218.53;4948564;23;20136;-90
2023/09/09 13:06:42;;;;;;;11.20;4.97;;;;;;;16.16;61.77;100222.59;4880315;29;20071;-89
2023/09/09 13:09:12;;;;;;;16.15;5.20;;;;;;;15.87;62.00;100179.16;4853438;29;20033;-89
2023/09/09 13:12:06;;;;;;;17.65;4.60;;;;;;;16.09;61.80;100189.19;4897291;29;20057;-89
2023/09/09 13:14:38;;;;;;;14.18;5.03;;;;;;;16.15;61.74;100181.53;4871505;29;20056;-91
2023/09/09 13:17:05;;;;;;;12.88;4.60;;;;;;;16.21;61.76;100197.56;4917509;29;20044;-91
2023/09/09 13:19:32;;;;;;;26.60;5.50;;;;;;;16.16;61.74;100188.69;4922503;23;20048;-90
2023/09/09 13:22:05;;;;;;;25.38;5.88;;;;;;;16.20;62.04;100200.66;4919070;29;20041;-91
2023/09/09 13:24:32;;;;;;;14.00;6.13;;;;;;;16.15;62.39;100209.91;4885178;29;20045;-90
2023/09/09 13:26:57;;;;;;;8.40;4.73;;;;;;;16.13;62.52;100206.69;4924151;29;20032;-90
2023/09/09 13:29:24;;;;;;;;;;;;;;;16.33;62.34;100223.69;4921536;29;20069;-90
2023/09/09 13:32:04;;;;;;;12.23;5.63;;;;;;;16.09;62.55;100189.19;4920685;29;20264;-94
2023/09/09 13:38:27;;;;;;;16.60;5.78;;;;;;;16.32;62.68;100225.59;5689321;23;20044;-90
2023/09/09 14:16:40;;;;;;;14.02;4.75;;;;;;;16.51;62.63;100233.50;2465972;23;20358;-90
2023/09/09 14:19:51;;;;;;;19.98;5.43;;;;;;;16.53;63.05;100235.97;4823272;29;20068;-89
2023/09/09 14:22:46;;;;;;;13.57;5.25;;;;;;;16.52;63.00;100243.41;4847154;29;20186;-92
2023/09/09 14:25:45;;;;;;;15.73;6.18;;;;;;;16.31;63.48;100209.41;5044115;23;20066;-90
2023/09/09 14:47:26;;;;;;;16.58;5.55;;;;;;;16.39;63.74;100238.91;4877791;29;20057;-94
2023/09/09 14:50:19;;;;;;;17.85;5.60;;;;;;;16.34;63.94;100234.38;4813765;29;20139;-93
2023/09/09 14:53:32;;;;;;;12.13;6.55;;;;;;;16.04;63.98;100178.31;4822786;29;20082;-93
2023/09/09 15:04:56;;;;;;;14.20;6.13;;;;;;;16.29;63.81;100247.53;3288519;23;20309;-92
2023/09/09 15:11:06;;;;;;;16.48;5.60;;;;;;;15.98;63.61;100176.88;4884081;23;20065;-91
2023/09/09 15:24:04;;;;;;;14.30;5.38;;;;;;;16.21;63.48;100199.53;4996722;23;20055;-92
2023/09/09 15:26:33;;;;;;;11.25;5.10;;;;;;;16.24;63.35;100196.09;5097458;23;20378;-91
2023/09/09 15:29:27;;;;;;;14.05;5.10;;;;;;;16.48;63.60;100227.84;5014086;24;20548;-92
2023/09/09 15:32:00;;;;;;;9.73;5.28;;;;;;;16.18;63.39;100178.91;4876722;29;20072;-89
2023/09/09 15:34:53;;;;;;;;;;;;;;;16.49;63.25;100222.00;4896240;29;20044;-92
2023/09/09 15:37:40;;;;;;;16.85;5.60;;;;;;;16.50;63.23;100231.09;4872612;29;19923;-91
2023/09/09 15:40:29;;;;;;;11.95;4.57;;;;;;;16.46;63.34;100225.44;4872878;29;20539;-91
2023/09/09 15:43:23;;;;;;;16.02;5.38;;;;;;;16.50;63.26;100237.41;4870787;29;20053;-95
2023/09/09 15:49:30;;;;;;;18.45;6.20;;;;;;;16.50;63.29;100229.13;4866131;29;20061;-93
2023/09/09 15:51:58;;;;;;;12.27;5.55;;;;;;;16.38;63.43;100207.75;4859849;29;20078;-95
2023/09/09 15:55:18;;;;;;;13.50;5.82;;;;;;;16.14;63.38;100172.44;4868421;29;20083;-94
2023/09/09 16:01:29;;;;;;;16.40;6.10;;;;;;;16.50;63.19;100242.13;4935469;23;20045;-90
2023/09/09 16:04:48;;;;;;;11.55;5.40;;;;;;;16.45;63.44;100237.59;4913111;29;20060;-92
2023/09/09 16:07:21;;;;;;;29.65;7.00;;;;;;;16.26;63.49;100193.84;4852534;29;20112;-91
2023/09/09 16:09:50;;;;;;;16.40;5.90;;;;;;;16.33;63.33;100207.13;4907285;29;20096;-92
2023/09/09 16:12:23;;;;;;;20.30;5.72;;;;;;;16.24;62.97;100192.53;4907866;29;20072;-94
2023/09/09 16:15:54;;;;;;;9.35;5.03;;;;;;;16.56;63.10;100246.34;4890109;29;20051;-94
2023/09/09 16:18:46;;;;;;;17.45;5.25;;;;;;;16.52;63.24;100248.13;4886274;29;20051;-91
2023/09/09 16:21:15;;;;;;;13.90;5.53;;;;;;;16.31;63.85;100220.44;4890183;29;20049;-91
2023/09/09 16:23:44;;;;;;;23.50;5.45;;;;;;;16.31;63.72;100224.00;4882689;29;20105;-89
2023/09/09 16:26:12;;;;;;;13.73;5.78;;;;;;;16.37;63.56;100227.41;4853455;29;20065;-90
2023/09/09 16:28:41;;;;;;;14.57;5.03;;;;;;;16.20;63.83;100209.75;4871285;29;20048;-88
2023/09/09 16:31:07;;;;;;;8.43;5.10;;;;;;;16.31;63.99;100217.69;4887663;29;20043;-87
2023/09/09 16:33:34;;;;;;;11.05;4.75;;;;;;;16.34;64.20;100247.38;4876784;29;20049;-89
2023/09/09 16:36:06;;;;;;;;;;;;;;;16.38;64.24;100240.84;4872276;29;20623;-88
2023/09/09 16:38:33;;;;;;;25.20;5.53;;;;;;;16.35;64.17;100224.16;4937561;23;19931;-90
2023/09/09 16:41:08;;;;;;;11.98;5.25;;;;;;;16.51;64.08;100243.75;4904083;29;20056;-88
2023/09/09 16:43:41;;;;;;;8.05;4.72;;;;;;;16.19;64.23;100190.75;4892574;29;20096;-89
2023/09/09 16:46:11;;;;;;;8.13;4.55;;;;;;;16.25;64.45;100210.72;4870237;29;20116;-88
2023/09/09 16:48:39;;;;;;;9.73;4.45;;;;;;;16.39;64.42;100231.47;4902990;29;20040;-89
2023/09/09 16:51:55;;;;;;;8.93;4.90;;;;;;;16.52;63.97;100246.16;4819850;29;20046;-92
2023/09/09 16:55:11;;;;;;;9.15;4.60;;;;;;;16.56;64.14;100249.09;4789057;29;20055;-93
2023/09/09 18:43:15;;;;;;;84.68;10.52;;;;;;;15.85;70.78;100261.38;4414654;23;20900;-90
2023/09/09 18:46:08;;;;;;;22.13;8.40;;;;;;;16.04;71.49;100294.16;4900833;29;20052;-91
2023/09/09 18:48:34;;;;;;;72.65;11.15;;;;;;;15.95;71.39;100285.06;4855041;29;20040;-90
2023/09/09 18:55:00;;;;;;;19.60;9.95;;;;;;;15.75;71.75;100261.72;4879332;29;20041;-93
2023/09/09 18:57:26;;;;;;;37.53;9.98;;;;;;;15.69;72.03;100268.53;4878501;29;20405;-90
2023/09/09 19:00:09;;;;;;;26.13;9.88;;;;;;;15.72;71.97;100271.44;4886120;29;20092;-91
2023/09/09 19:05:46;;;;;;;14.55;8.63;;;;;;;15.92;72.38;100299.50;4779533;29;20043;-91
2023/09/09 19:11:41;;;;;;;21.52;9.90;;;;;;;15.64;72.46;100268.66;4950778;23;20067;-92
2023/09/09 19:14:32;;;;;;;19.45;9.00;;;;;;;15.86;72.82;100309.06;4877409;29;20096;-93
2023/09/09 19:17:01;;;;;;;15.73;9.27;;;;;;;15.50;72.53;100255.03;4854187;29;20055;-89
2023/09/09 19:19:35;;;;;;;21.33;9.00;;;;;;;15.87;72.25;100313.47;4884372;29;20156;-91
2023/09/09 19:24:59;;;;;;;17.40;9.80;;;;;;;15.47;72.24;100244.66;4916273;29;20056;-93
2023/09/09 19:30:56;;;;;;;20.42;9.48;;;;;;;15.93;72.30;100306.66;4916640;23;20068;-90
2023/09/09 19:36:19;;;;;;;19.08;9.80;;;;;;;15.97;72.49;100315.91;4932678;23;20052;-92
2023/09/09 19:38:49;;;;;;;26.38;9.88;;;;;;;15.78;72.02;100280.38;4895716;29;20044;-91
2023/09/09 19:45:34;;;;;;;15.02;9.35;;;;;;;16.00;72.04;100306.97;4866807;23;20060;-91
2023/09/09 19:48:10;;;;;;;17.45;10.32;;;;;;;15.78;72.03;100271.28;4865456;29;20053;-92
2023/09/09 19:50:40;;;;;;;20.95;9.70;;;;;;;15.84;72.00;100279.06;4854976;29;20490;-92
2023/09/09 19:53:24;;;;;;;20.35;10.70;;;;;;;15.93;72.79;100306.66;4856641;29;20144;-92
2023/09/09 19:55:53;;;;;;;23.08;10.18;;;;;;;15.88;72.79;100307.63;4869651;23;20053;-92
2023/09/09 19:59:26;;;;;;;18.55;10.25;;;;;;;16.03;72.58;100309.09;4890559;29;20045;-92
2023/09/09 20:01:55;;;;;;;32.25;10.50;;;;;;;15.96;72.37;100290.28;4881111;29;20117;-88
2023/09/09 20:04:21;;;;;;;32.77;10.90;;;;;;;15.59;72.45;100236.53;4882609;29;20084;-89
2023/09/09 20:07:11;;;;;;;28.38;10.43;;;;;;;15.72;72.12;100257.66;4815324;29;20560;-93
2023/09/09 20:10:24;;;;;;;32.43;10.73;;;;;;;16.11;72.42;100300.00;4815514;29;20140;-88
2023/09/09 20:12:51;;;;;;;17.70;10.25;;;;;;;15.81;72.05;100267.88;4807043;29;20608;-89
2023/09/09 20:15:19;;;;;;;19.13;10.80;;;;;;;15.85;72.20;100275.19;4838808;23;20052;-90
2023/09/09 20:17:48;;;;;;;25.55;11.50;;;;;;;16.03;72.39;100309.09;4917229;23;20047;-90
2023/09/09 20:20:50;;;;;;;31.70;11.68;;;;;;;15.94;72.08;100287.03;4895146;29;20073;-88
2023/09/09 20:23:17;;;;;;;47.00;13.18;;;;;;;16.00;72.15;100297.91;4865450;29;20041;-89
2023/09/09 20:28:36;;;;;;;26.73;11.00;;;;;;;15.99;71.61;100288.78;4936195;29;20051;-89
2023/09/09 20:31:05;;;;;;;20.55;11.02;;;;;;;15.91;71.70;100262.03;4895655;29;20050;-89
2023/09/09 20:44:25;;;;;;;17.23;9.60;;;;;;;15.61;69.77;100267.38;4926387;23;20048;-89
2023/09/09 20:46:55;;;;;;;20.10;9.85;;;;;;;15.55;69.98;100268.66;4904890;29;20535;-88
2023/09/09 20:49:21;;;;;;;16.85;9.98;;;;;;;15.51;70.45;100264.94;4918494;29;20036;-89
2023/09/09 20:52:08;;;;;;;14.67;9.50;;;;;;;15.55;70.56;100271.41;4908829;29;20529;-90
2023/09/09 20:54:42;;;;;;;17.17;9.55;;;;;;;15.45;71.05;100267.03;4934025;29;20307;-92
2023/09/09 21:03:47;;;;;;;18.00;9.65;;;;;;;15.23;72.22;100262.47;4871096;23;20056;-92
2023/09/09 21:07:03;;;;;;;21.30;10.25;;;;;;;15.08;72.33;100251.88;4787203;30;20064;-92
2023/09/09 21:12:21;;;;;;;17.67;9.32;;;;;;;14.81;72.27;100208.91;4913247;24;20057;-94
2023/09/09 21:15:13;;;;;;;17.63;9.30;;;;;;;15.26;72.32;100292.13;4864033;29;20048;-91
2023/09/09 21:17:54;;;;;;;16.52;9.13;;;;;;;14.83;72.56;100231.38;4852280;29;20053;-93
2023/09/09 21:24:07;;;;;;;15.05;9.65;;;;;;;15.24;72.75;100301.84;5072608;23;20486;-91
2023/09/09 21:29:50;;;;;;;22.48;10.30;;;;;;;14.74;72.81;100223.13;4899351;29;20057;-89
2023/09/09 21:32:31;;;;;;;34.95;10.40;;;;;;;14.90;73.23;100252.94;4842721;29;20037;-89
2023/09/09 21:34:57;;;;;;;15.70;9.85;;;;;;;14.91;73.64;100260.09;4875782;29;20048;-89
2023/09/09 21:37:24;;;;;;;25.38;10.48;;;;;;;14.96;73.53;100262.69;4873111;29;20085;-90
2023/09/09 21:39:50;;;;;;;;;;;;;;;15.02;73.61;100284.25;4847551;29;20055;-92
2023/09/09 21:42:32;;;;;;;22.93;10.60;;;;;;;15.03;73.76;100283.16;4865290;24;19936;-90
2023/09/09 21:45:28;;;;;;;19.02;10.52;;;;;;;14.76;73.85;100245.63;4848005;29;20073;-93
2023/09/09 21:48:19;;;;;;;18.75;10.82;;;;;;;14.86;73.88;100265.75;4905048;23;20067;-91
2023/09/09 21:51:45;;;;;;;20.60;11.10;;;;;;;14.98;74.05;100288.78;4874734;29;20044;-90
2023/09/09 21:54:16;;;;;;;22.50;11.05;;;;;;;14.73;73.77;100243.50;4900732;29;20141;-90
2023/09/09 21:56:47;;;;;;;19.77;10.85;;;;;;;14.54;73.48;100226.44;4853547;29;20048;-90
2023/09/09 21:59:14;;;;;;;24.55;10.95;;;;;;;14.69;73.83;100267.28;4882347;29;20036;-90
2023/09/09 22:01:58;;;;;;;18.05;10.95;;;;;;;14.46;73.71;100238.97;4936622;23;20070;-91
2023/09/09 22:04:24;;;;;;;;;;;;;;;14.85;73.71;100299.91;4907256;29;20044;-89
2023/09/09 22:07:17;;;;;;;16.90;10.97;;;;;;;14.82;74.16;100298.59;4894362;29;19929;-90
2023/09/09 22:10:29;;;;;;;22.67;10.82;;;;;;;14.42;74.56;100248.19;4913976;29;20129;-90
2023/09/09 22:12:55;;;;;;;16.58;10.63;;;;;;;14.67;74.78;100276.97;4901711;29;20048;-91
2023/09/09 22:15:21;;;;;;;20.38;11.13;;;;;;;14.56;74.94;100258.00;4909510;29;20036;-90
2023/09/09 22:17:47;;;;;;;19.42;11.57;;;;;;;14.55;75.07;100261.09;4901351;29;20065;-92
2023/09/09 22:20:47;;;;;;;20.02;11.63;;;;;;;14.45;75.08;100242.06;4898915;23;20077;-90
2023/09/09 22:23:13;;;;;;;17.55;11.13;;;;;;;14.39;74.92;100230.38;4887722;29;20043;-89
2023/09/09 22:25:39;;;;;;;34.00;12.48;;;;;;;14.63;75.18;100265.00;4869908;29;20052;-91
2023/09/09 22:28:32;;;;;;;18.17;11.50;;;;;;;14.82;74.91;100303.28;4915647;29;20489;-91
2023/09/09 22:30:59;;;;;;;22.38;11.02;;;;;;;14.23;74.64;100223.66;4862266;23;20325;-90
2023/09/09 22:33:25;;;;;;;20.02;11.60;;;;;;;14.32;74.70;100244.59;4857917;29;20055;-91
2023/09/09 22:36:05;;;;;;;22.05;12.38;;;;;;;14.66;74.72;100284.44;4873401;29;20033;-91
2023/09/09 22:38:31;;;;;;;21.15;11.75;;;;;;;14.46;74.46;100255.50;4855766;29;20077;-91
2023/09/09 22:40:58;;;;;;;23.02;13.20;;;;;;;14.62;75.55;100280.69;4838388;29;20131;-89
2023/09/09 22:43:24;;;;;;;25.23;12.48;;;;;;;14.85;75.29;100297.16;4845108;29;20059;-89
2023/09/09 22:46:09;;;;;;;21.25;11.98;;;;;;;14.58;75.10;100257.69;4866338;29;20131;-91
2023/09/09 22:49:05;;;;;;;20.02;11.43;;;;;;;14.90;75.48;100294.25;4897322;29;20080;-90
2023/09/09 22:52:01;;;;;;;22.40;12.00;;;;;;;14.95;74.94;100288.63;4862836;29;20045;-90
2023/09/09 22:54:53;;;;;;;23.58;11.95;;;;;;;15.01;74.98;100293.66;4956769;23;20304;-93
2023/09/09 22:57:47;;;;;;;19.70;12.15;;;;;;;15.04;74.98;100293.03;5082421;23;20048;-92
2023/09/09 23:04:24;;;;;;;21.60;12.75;;;;;;;15.10;75.06;100293.69;5016645;23;20048;31
2023/09/09 23:13:12;;;;;;;26.15;12.35;;;;;;;14.93;74.55;100247.66;4997499;23;20080;-93
2023/09/09 23:16:03;;;;;;;23.10;12.68;;;;;;;15.25;74.23;100292.44;4907726;23;20024;-93
